Time;durP1;ratioP1;P1;durP2;ratioP2;P2;SDS_P1;SDS_P2;PMS_P1;PMS_P2;Temp;Humidity;BMP_temperature;BMP_pressure;BME280_temperature;BME280_humidity;BME280_pressure;Samples;Min_cycle;Max_cycle;Signal;HPM_P1;HPM_P2
2021/03/08 00:00:32;;;;;;;14.73;3.42;;;-3.70;99.90;;;;;;5051115;28;20017;-76
2021/03/08 00:02:58;;;;;;;12.02;4.47;;;-3.70;99.90;;;;;;5051307;28;20078;-76
2021/03/08 00:05:24;;;;;;;10.50;3.72;;;-3.80;99.90;;;;;;5050045;28;20040;-76
2021/03/08 00:07:50;;;;;;;12.43;4.15;;;-3.80;99.90;;;;;;5051137;28;20029;-76
2021/03/08 00:10:17;;;;;;;10.25;3.50;;;-3.90;99.90;;;;;;5033286;28;20025;-76
2021/03/08 00:12:44;;;;;;;11.63;3.85;;;-3.90;99.90;;;;;;5033213;28;20021;-76
2021/03/08 00:15:11;;;;;;;12.63;3.75;;;-3.90;99.90;;;;;;5049957;28;20046;-76
2021/03/08 00:17:37;;;;;;;16.73;3.88;;;-3.90;99.90;;;;;;5033009;28;20037;-76
2021/03/08 00:20:05;;;;;;;14.02;3.97;;;-4.00;99.90;;;;;;5033155;28;20025;-76
2021/03/08 00:22:30;;;;;;;9.38;3.25;;;-4.00;99.90;;;;;;5050945;28;20112;-76
2021/03/08 00:24:56;;;;;;;10.65;3.78;;;-4.10;99.90;;;;;;5049725;28;20105;-77
2021/03/08 00:27:21;;;;;;;11.80;3.35;;;-4.10;99.90;;;;;;5033037;28;20032;-77
2021/03/08 00:29:47;;;;;;;17.20;3.35;;;-4.10;99.90;;;;;;5032836;28;20024;-76
2021/03/08 00:32:13;;;;;;;15.40;4.03;;;-4.10;99.90;;;;;;5050949;28;20079;-76
2021/03/08 00:34:38;;;;;;;11.68;4.10;;;-4.10;99.90;;;;;;5049910;28;20100;-76
2021/03/08 00:37:05;;;;;;;13.82;2.90;;;-4.20;99.90;;;;;;5054280;28;20025;-77
2021/03/08 00:39:31;;;;;;;14.10;2.85;;;-4.20;99.90;;;;;;5036693;28;20562;-76
2021/03/08 00:41:56;;;;;;;17.98;4.25;;;-4.30;99.90;;;;;;5054357;28;20496;-76
2021/03/08 00:44:22;;;;;;;13.13;3.88;;;-4.30;99.90;;;;;;5035548;28;20064;-77
2021/03/08 00:46:47;;;;;;;7.65;3.20;;;-4.40;99.90;;;;;;5036470;28;20027;-76
2021/03/08 00:49:13;;;;;;;14.00;3.53;;;-4.40;99.90;;;;;;5054200;28;20393;-76
2021/03/08 00:51:39;;;;;;;10.05;3.00;;;-4.40;99.90;;;;;;5054356;28;20029;-75
2021/03/08 00:54:04;;;;;;;12.18;4.50;;;-4.50;99.90;;;;;;5053398;28;20031;-76
2021/03/08 00:56:30;;;;;;;17.20;3.97;;;-4.50;99.90;;;;;;5054227;28;20028;-76
2021/03/08 00:58:56;;;;;;;20.73;3.65;;;-4.50;99.90;;;;;;5054063;28;20051;-76
2021/03/08 01:01:22;;;;;;;19.88;4.93;;;-4.40;99.90;;;;;;5054177;28;20021;-76
2021/03/08 01:03:48;;;;;;;17.05;3.45;;;-4.40;99.90;;;;;;5053347;28;20033;-76
2021/03/08 01:06:13;;;;;;;15.55;4.85;;;-4.40;99.90;;;;;;5035696;28;20029;-76
2021/03/08 01:08:39;;;;;;;7.97;2.85;;;-4.40;99.90;;;;;;5053924;28;20072;-76
2021/03/08 01:11:04;;;;;;;12.70;3.75;;;-4.40;99.90;;;;;;5053473;28;20035;-76
2021/03/08 01:13:30;;;;;;;13.63;3.25;;;-4.40;99.90;;;;;;5036050;28;20070;-76
2021/03/08 01:15:55;;;;;;;8.82;3.17;;;-4.50;99.90;;;;;;5052996;28;20082;-76
2021/03/08 01:18:21;;;;;;;10.35;3.38;;;-4.50;99.90;;;;;;5035689;28;20025;-77
2021/03/08 01:20:47;;;;;;;15.60;4.57;;;-4.50;99.90;;;;;;5035999;28;20028;-76
2021/03/08 01:23:13;;;;;;;16.33;3.35;;;-4.50;99.90;;;;;;5053777;28;20606;-76
2021/03/08 01:25:39;;;;;;;15.85;4.40;;;-4.40;99.90;;;;;;5052793;28;20033;-76
2021/03/08 01:28:06;;;;;;;20.83;4.25;;;-4.40;99.90;;;;;;5053483;28;20087;-76
2021/03/08 01:30:35;;;;;;;14.45;4.13;;;-4.40;99.90;;;;;;5053459;28;20028;-76
2021/03/08 01:33:01;;;;;;;12.95;4.03;;;-4.40;99.90;;;;;;5035695;28;20125;-76
2021/03/08 01:35:27;;;;;;;13.90;4.38;;;-4.40;99.90;;;;;;5052688;28;20577;-76
2021/03/08 01:37:52;;;;;;;13.88;3.70;;;-4.40;99.90;;;;;;5053510;28;20066;-76
2021/03/08 01:40:21;;;;;;;11.25;3.78;;;-4.40;99.90;;;;;;5035323;28;20040;-76
2021/03/08 01:42:47;;;;;;;15.02;3.78;;;-4.40;99.90;;;;;;5053263;28;20032;-76
2021/03/08 01:45:15;;;;;;;17.52;4.90;;;-4.40;99.90;;;;;;5052416;28;20040;-76
2021/03/08 01:47:42;;;;;;;14.13;4.82;;;-4.40;99.90;;;;;;5052617;28;20032;-76
2021/03/08 01:50:34;;;;;;;29.70;5.03;;;-4.40;99.90;;;;;;5053201;28;20507;-76
2021/03/08 01:53:02;;;;;;;19.77;4.03;;;-4.40;99.90;;;;;;5034942;28;20031;-76
2021/03/08 01:55:28;;;;;;;14.32;5.07;;;-4.50;99.90;;;;;;5034399;28;20029;-76
2021/03/08 01:57:54;;;;;;;14.30;3.95;;;-4.60;99.90;;;;;;5052160;28;20060;-77
2021/03/08 02:00:24;;;;;;;14.38;4.32;;;-4.70;99.90;;;;;;5052920;28;20108;-76
2021/03/08 02:02:49;;;;;;;14.02;4.85;;;-4.70;99.90;;;;;;5053093;28;20489;-75
2021/03/08 02:05:17;;;;;;;27.65;5.22;;;-4.80;99.90;;;;;;5051787;28;20033;-76
2021/03/08 02:07:43;;;;;;;17.95;4.72;;;-4.80;99.90;;;;;;5052844;28;20021;-76
2021/03/08 02:10:14;;;;;;;13.50;4.40;;;-4.90;99.90;;;;;;5052393;28;20228;-76
2021/03/08 02:12:48;;;;;;;18.25;4.88;;;-4.90;99.90;;;;;;5052754;28;20025;-76
2021/03/08 02:15:32;;;;;;;12.07;4.55;;;-5.00;99.90;;;;;;5051857;28;20428;-76
2021/03/08 02:18:19;;;;;;;23.67;5.07;;;-5.00;99.90;;;;;;5034515;28;20462;-77
2021/03/08 02:20:53;;;;;;;14.18;4.35;;;-5.00;99.90;;;;;;5052447;28;20048;-76
2021/03/08 02:23:27;;;;;;;8.23;4.15;;;-5.00;99.90;;;;;;5034913;28;20029;-76
2021/03/08 02:26:18;;;;;;;17.15;4.47;;;-5.10;99.90;;;;;;5033423;28;20040;-76
2021/03/08 02:28:47;;;;;;;14.68;3.95;;;-5.10;99.90;;;;;;5052205;28;20042;-76
2021/03/08 02:31:18;;;;;;;8.10;4.10;;;-5.20;99.90;;;;;;5052422;28;20094;-76
2021/03/08 02:33:51;;;;;;;12.07;4.22;;;-5.30;99.90;;;;;;5051861;28;20021;-76
2021/03/08 02:36:18;;;;;;;17.20;3.75;;;-5.30;99.90;;;;;;5051508;28;20473;-76
2021/03/08 02:38:50;;;;;;;19.17;4.10;;;-5.40;99.90;;;;;;5052319;28;20025;-76
2021/03/08 02:41:19;;;;;;;13.98;4.13;;;-5.30;99.90;;;;;;5032476;28;20593;-76
2021/03/08 02:43:49;;;;;;;11.15;4.25;;;-5.40;99.90;;;;;;5031511;28;20021;-76
2021/03/08 02:46:37;;;;;;;17.27;5.18;;;-5.40;99.90;;;;;;5047489;28;20017;-76
2021/03/08 02:49:07;;;;;;;17.02;4.70;;;-5.40;99.90;;;;;;5052088;28;20406;-76
2021/03/08 02:51:37;;;;;;;15.30;5.30;;;-5.40;99.90;;;;;;5034012;28;20017;-76
2021/03/08 02:54:04;;;;;;;16.60;4.80;;;-5.30;99.90;;;;;;5050950;28;20118;-76
2021/03/08 02:56:33;;;;;;;16.05;5.65;;;-5.30;99.90;;;;;;5052019;28;20100;-76
2021/03/08 02:59:02;;;;;;;10.75;4.50;;;-5.30;99.90;;;;;;5050754;28;20024;-76
2021/03/08 03:01:30;;;;;;;13.40;5.07;;;-5.30;99.90;;;;;;5051969;28;20072;-76
2021/03/08 03:03:58;;;;;;;22.83;4.63;;;-5.30;99.90;;;;;;5051231;28;20029;-76
2021/03/08 03:06:27;;;;;;;15.00;4.50;;;-5.30;99.90;;;;;;5051375;28;20029;-76
2021/03/08 03:08:54;;;;;;;15.52;4.47;;;-5.30;99.90;;;;;;5051393;28;20063;-76
2021/03/08 03:11:22;;;;;;;16.73;4.95;;;-5.30;99.90;;;;;;5033935;28;20025;-76
2021/03/08 03:13:49;;;;;;;17.88;4.82;;;-5.40;99.90;;;;;;5032997;28;20021;-76
2021/03/08 03:16:15;;;;;;;11.13;4.22;;;-5.40;99.90;;;;;;5051457;28;20516;-76
2021/03/08 03:18:46;;;;;;;10.52;4.38;;;-5.50;99.90;;;;;;5033248;28;20025;-76
2021/03/08 03:21:12;;;;;;;11.32;4.78;;;-5.50;99.90;;;;;;5033641;28;20083;-76
2021/03/08 03:23:39;;;;;;;19.48;5.00;;;-5.50;99.90;;;;;;5051444;28;20036;-76
2021/03/08 03:26:06;;;;;;;17.23;5.10;;;-5.50;99.90;;;;;;5033285;28;20025;-76
2021/03/08 03:28:32;;;;;;;11.82;4.85;;;-5.50;99.90;;;;;;5033443;28;20109;-76
2021/03/08 03:30:59;;;;;;;19.30;5.05;;;-5.50;99.90;;;;;;5051284;28;20025;-76
2021/03/08 03:33:27;;;;;;;17.73;8.18;;;-5.60;99.90;;;;;;5051664;28;20044;-76
2021/03/08 03:35:52;;;;;;;14.95;4.28;;;-5.60;99.90;;;;;;5049756;28;20595;-77
2021/03/08 03:38:20;;;;;;;9.07;4.47;;;-5.60;99.90;;;;;;5051466;28;20056;-76
2021/03/08 03:40:47;;;;;;;14.02;4.82;;;-5.60;99.90;;;;;;5050950;28;20033;-76
2021/03/08 03:43:13;;;;;;;18.00;5.85;;;-5.60;99.90;;;;;;5033290;28;20107;-76
2021/03/08 03:45:39;;;;;;;15.27;4.57;;;-5.60;99.90;;;;;;5050342;28;20108;-76
2021/03/08 03:48:05;;;;;;;24.50;4.90;;;-5.60;99.90;;;;;;5051339;28;20112;-76
2021/03/08 03:50:31;;;;;;;10.18;4.65;;;-5.70;99.90;;;;;;5050937;28;20151;-76
2021/03/08 03:52:56;;;;;;;17.67;5.65;;;-5.70;99.90;;;;;;5033430;28;20024;-76
2021/03/08 03:55:24;;;;;;;23.02;5.88;;;-5.70;99.90;;;;;;5050340;28;20021;-76
2021/03/08 03:58:10;;;;;;;14.45;6.57;;;-5.70;99.90;;;;;;5032972;28;20112;-76
2021/03/08 04:00:54;;;;;;;20.38;6.03;;;-5.70;99.90;;;;;;5050150;28;20033;-76
2021/03/08 04:03:28;;;;;;;15.98;5.88;;;-5.70;99.90;;;;;;5051124;28;20485;-76
2021/03/08 04:05:56;;;;;;;21.38;4.95;;;-5.60;99.90;;;;;;5050101;28;20059;-76
2021/03/08 04:08:25;;;;;;;20.65;5.10;;;-5.60;99.90;;;;;;5051017;28;20021;-76
2021/03/08 04:10:57;;;;;;;13.57;4.32;;;-5.60;99.90;;;;;;5034435;28;20033;-76
2021/03/08 04:13:27;;;;;;;18.23;5.25;;;-5.60;99.90;;;;;;5037254;28;20021;-76
2021/03/08 04:15:55;;;;;;;9.48;4.85;;;-5.60;99.90;;;;;;5054232;28;20374;-76
2021/03/08 04:18:23;;;;;;;14.15;4.25;;;-5.60;99.90;;;;;;5054966;28;20017;-76
2021/03/08 04:20:52;;;;;;;16.60;5.13;;;-5.60;99.90;;;;;;5054700;28;20029;-76
2021/03/08 04:23:19;;;;;;;18.73;5.03;;;-5.50;99.90;;;;;;5054959;28;20021;-76
2021/03/08 04:25:48;;;;;;;15.73;4.75;;;-5.50;99.90;;;;;;5053772;28;20401;-76
2021/03/08 04:28:14;;;;;;;23.33;4.53;;;-5.50;99.90;;;;;;5036905;28;20025;-75
2021/03/08 04:30:44;;;;;;;22.88;5.40;;;-5.40;99.90;;;;;;5054668;28;20037;-76
2021/03/08 04:33:12;;;;;;;22.23;6.40;;;-5.50;99.90;;;;;;5055058;28;20024;-76
2021/03/08 04:35:38;;;;;;;31.10;7.07;;;-5.50;99.90;;;;;;5053747;28;20485;-76
2021/03/08 04:38:05;;;;;;;16.88;5.97;;;-5.40;99.90;;;;;;5036788;28;20029;-76
2021/03/08 04:40:33;;;;;;;21.60;5.70;;;-5.50;99.90;;;;;;5054383;28;20037;-76
2021/03/08 04:43:01;;;;;;;14.75;4.57;;;-5.40;99.90;;;;;;5054612;28;20035;-76
2021/03/08 04:45:27;;;;;;;14.27;4.80;;;-5.40;99.90;;;;;;5053182;28;20516;-76
2021/03/08 04:47:53;;;;;;;10.27;4.00;;;-5.40;99.90;;;;;;5054450;28;20029;-75
2021/03/08 04:50:19;;;;;;;11.70;4.88;;;-5.50;99.90;;;;;;5036622;28;20060;-76
2021/03/08 04:52:48;;;;;;;8.85;3.72;;;-5.70;99.90;;;;;;5054469;28;20029;-76
2021/03/08 04:55:15;;;;;;;14.02;4.65;;;-5.70;99.90;;;;;;5035626;28;20031;-76
2021/03/08 04:57:42;;;;;;;9.70;4.50;;;-5.80;99.90;;;;;;5054302;28;20021;-76
2021/03/08 05:00:10;;;;;;;19.92;5.32;;;-5.80;99.90;;;;;;5054159;28;20108;-76
2021/03/08 05:02:37;;;;;;;12.30;4.75;;;-6.00;99.90;;;;;;5054113;28;20028;-76
2021/03/08 05:05:06;;;;;;;14.15;4.90;;;-6.00;99.90;;;;;;5053256;28;20078;-76
2021/03/08 05:07:34;;;;;;;9.30;4.30;;;-6.00;99.90;;;;;;5054150;28;20028;-76
2021/03/08 05:10:01;;;;;;;12.30;5.25;;;-6.00;99.90;;;;;;5053588;28;20033;-76
2021/03/08 05:12:28;;;;;;;13.75;4.95;;;-6.00;99.90;;;;;;5036141;28;20022;-76
2021/03/08 05:14:56;;;;;;;19.42;5.13;;;-5.90;99.90;;;;;;5053117;28;20021;-76
2021/03/08 05:17:23;;;;;;;18.00;5.75;;;-5.80;99.90;;;;;;5035973;28;20564;-76
2021/03/08 05:19:50;;;;;;;14.38;4.82;;;-5.80;99.90;;;;;;5035984;28;20167;-76
2021/03/08 05:22:17;;;;;;;9.32;4.20;;;-5.80;99.90;;;;;;5052859;28;20036;-76
2021/03/08 05:24:48;;;;;;;16.17;5.18;;;-5.80;99.90;;;;;;5053136;28;20477;-76
2021/03/08 05:27:15;;;;;;;12.82;4.05;;;-5.80;99.90;;;;;;5053368;28;20110;-76
2021/03/08 05:29:43;;;;;;;11.05;4.28;;;-5.80;99.90;;;;;;5035567;28;20079;-76
2021/03/08 05:32:12;;;;;;;19.25;5.15;;;-5.80;99.90;;;;;;5053685;28;20469;-76
2021/03/08 05:34:43;;;;;;;12.48;4.57;;;-5.90;99.90;;;;;;5052784;28;20025;-76
2021/03/08 05:37:11;;;;;;;14.10;4.35;;;-5.90;99.90;;;;;;5053592;28;20499;-76
2021/03/08 05:39:38;;;;;;;13.43;4.20;;;-6.00;99.90;;;;;;5053154;28;20029;-76
2021/03/08 05:42:10;;;;;;;9.05;4.50;;;-6.10;99.90;;;;;;5035660;28;20029;-76
2021/03/08 05:44:41;;;;;;;13.18;5.10;;;-6.10;99.90;;;;;;5052466;28;20029;-76
2021/03/08 05:47:49;;;;;;;17.38;4.95;;;-6.20;99.90;;;;;;5035666;28;20025;-76
2021/03/08 05:50:33;;;;;;;7.82;3.60;;;-6.20;99.90;;;;;;5042165;28;20052;-76
2021/03/08 05:53:17;;;;;;;12.20;3.53;;;-6.20;99.90;;;;;;5035420;28;20021;-76
2021/03/08 05:55:49;;;;;;;14.32;5.10;;;-6.20;99.90;;;;;;5052218;28;20057;-76
2021/03/08 05:58:40;;;;;;;16.00;3.92;;;-6.20;99.90;;;;;;5053195;28;20088;-76
2021/03/08 06:01:38;;;;;;;16.17;4.70;;;-6.20;99.90;;;;;;5053068;28;20032;-76
2021/03/08 06:04:26;;;;;;;21.48;5.18;;;-6.20;99.90;;;;;;5034664;28;20481;-76
2021/03/08 06:07:29;;;;;;;15.45;4.43;;;-6.20;99.90;;;;;;5031898;28;20060;-76
2021/03/08 06:10:04;;;;;;;10.97;3.97;;;-6.10;99.90;;;;;;5024692;28;20025;-76
2021/03/08 06:12:40;;;;;;;9.57;4.57;;;-6.20;99.90;;;;;;5035131;28;20433;-76
2021/03/08 06:15:11;;;;;;;12.77;5.43;;;-6.20;99.90;;;;;;5052043;28;20033;-76
2021/03/08 06:17:38;;;;;;;12.88;4.53;;;-6.20;99.90;;;;;;5052255;28;20446;-76
2021/03/08 06:20:06;;;;;;;17.13;4.85;;;-6.10;99.90;;;;;;5052649;28;20033;-76
2021/03/08 06:22:33;;;;;;;10.75;3.88;;;-6.10;99.90;;;;;;5034835;28;20032;-76
2021/03/08 06:24:59;;;;;;;14.35;4.95;;;-6.10;99.90;;;;;;5051667;28;20036;-76
2021/03/08 06:27:26;;;;;;;15.38;5.05;;;-6.10;99.90;;;;;;5052432;28;20021;-76
2021/03/08 06:29:53;;;;;;;14.52;5.93;;;-6.00;99.90;;;;;;5052433;28;20031;-76
2021/03/08 06:32:19;;;;;;;13.50;5.22;;;-6.00;99.90;;;;;;5034554;28;20020;-76
2021/03/08 06:34:45;;;;;;;12.68;5.03;;;-6.00;99.90;;;;;;5051364;28;20029;-76
2021/03/08 06:37:12;;;;;;;11.32;4.20;;;-6.00;99.90;;;;;;5034498;28;20543;-76
2021/03/08 06:39:42;;;;;;;17.38;4.22;;;-5.90;99.90;;;;;;5034098;28;20039;-76
2021/03/08 06:42:10;;;;;;;15.90;4.60;;;-5.90;99.90;;;;;;5034521;28;20108;-76
2021/03/08 06:44:36;;;;;;;19.20;5.03;;;-5.80;99.90;;;;;;5051229;28;20028;-76
2021/03/08 06:47:04;;;;;;;11.68;4.20;;;-5.70;99.90;;;;;;5034490;28;20046;-76
2021/03/08 06:49:31;;;;;;;15.27;4.85;;;-5.60;99.90;;;;;;5052190;28;20098;-76
2021/03/08 06:52:11;;;;;;;12.77;5.00;;;-5.50;99.90;;;;;;5052165;28;20029;-76
2021/03/08 06:54:39;;;;;;;14.32;4.93;;;-5.40;99.90;;;;;;5051212;28;20032;-76
2021/03/08 06:57:24;;;;;;;9.75;5.05;;;-5.30;99.90;;;;;;5052071;28;20033;-76
2021/03/08 07:00:09;;;;;;;15.52;5.20;;;-5.10;99.90;;;;;;5051755;28;20029;-76
2021/03/08 07:02:40;;;;;;;17.52;5.25;;;-4.90;99.90;;;;;;5051973;28;20049;-76
2021/03/08 07:05:07;;;;;;;17.83;5.82;;;-4.60;99.90;;;;;;5050863;28;20021;-76
2021/03/08 07:07:58;;;;;;;27.90;9.10;;;-4.40;99.90;;;;;;5033924;28;20025;-76
2021/03/08 07:10:33;;;;;;;21.90;8.68;;;-4.30;99.90;;;;;;5033698;28;20025;-75
2021/03/08 07:13:00;;;;;;;20.38;7.60;;;-4.10;99.90;;;;;;5033982;28;20030;-75
2021/03/08 07:15:26;;;;;;;21.33;8.00;;;-3.90;99.90;;;;;;5050637;28;20532;-76
2021/03/08 07:17:52;;;;;;;20.55;8.00;;;-3.80;99.90;;;;;;5051683;28;20033;-76
2021/03/08 07:20:17;;;;;;;22.35;8.55;;;-3.60;99.90;;;;;;5051562;28;20033;-76
2021/03/08 07:22:48;;;;;;;19.65;6.90;;;-3.40;99.90;;;;;;5033820;28;20021;-77
2021/03/08 07:25:24;;;;;;;24.63;8.18;;;-3.30;99.90;;;;;;5050494;28;20029;-76
2021/03/08 07:27:55;;;;;;;28.65;7.22;;;-3.10;99.90;;;;;;5051339;28;20033;-77
2021/03/08 07:30:32;;;;;;;22.70;6.70;;;-2.90;99.90;;;;;;5051550;28;20033;-76
2021/03/08 07:33:05;;;;;;;25.45;7.75;;;-2.80;99.90;;;;;;5033756;28;20443;-76
2021/03/08 07:35:36;;;;;;;23.65;9.70;;;-2.60;99.90;;;;;;5032842;28;20029;-76
2021/03/08 07:38:03;;;;;;;34.50;11.45;;;-2.50;99.90;;;;;;5051429;28;20037;-76
2021/03/08 07:40:30;;;;;;;30.35;9.82;;;-2.50;99.90;;;;;;5051541;28;20032;-76
2021/03/08 07:42:56;;;;;;;34.28;8.55;;;-2.30;99.90;;;;;;5033563;28;20496;-77
2021/03/08 07:45:41;;;;;;;27.23;7.05;;;-2.10;99.90;;;;;;5032164;28;20060;-76
2021/03/08 07:48:11;;;;;;;23.88;7.05;;;-1.90;99.90;;;;;;5051446;28;20025;-76
2021/03/08 07:50:37;;;;;;;20.23;6.30;;;-1.80;99.90;;;;;;5048049;28;20405;-76
2021/03/08 07:53:21;;;;;;;20.95;6.55;;;-1.70;99.90;;;;;;5047989;28;20099;-77
2021/03/08 07:55:48;;;;;;;26.63;6.65;;;-1.60;99.90;;;;;;5035808;28;20139;-75
2021/03/08 07:58:16;;;;;;;18.52;6.95;;;-1.50;99.90;;;;;;5049566;28;20389;-76
2021/03/08 08:00:42;;;;;;;16.63;6.88;;;-1.30;99.90;;;;;;5031313;28;20500;-76
2021/03/08 08:03:07;;;;;;;13.32;6.07;;;-1.10;99.90;;;;;;5032885;28;20057;-76
2021/03/08 08:05:33;;;;;;;17.30;7.40;;;-0.90;99.90;;;;;;5050250;28;20040;-76
2021/03/08 08:08:00;;;;;;;18.95;6.80;;;-0.70;99.90;;;;;;5050540;28;20040;-76
2021/03/08 08:10:26;;;;;;;17.92;6.55;;;-0.50;99.90;;;;;;5050329;28;20024;-76
2021/03/08 08:12:54;;;;;;;17.08;7.60;;;-0.30;99.90;;;;;;5030061;28;20025;-76
2021/03/08 08:15:23;;;;;;;26.77;8.73;;;-0.20;99.90;;;;;;5052139;28;20043;-76
2021/03/08 08:17:53;;;;;;;11.63;4.97;;;0.00;99.90;;;;;;5049430;28;20485;-76
2021/03/08 08:20:20;;;;;;;16.42;6.10;;;0.20;99.90;;;;;;5050656;28;20032;-76
2021/03/08 08:22:59;;;;;;;21.02;6.72;;;0.30;99.90;;;;;;5046652;28;20036;-76
2021/03/08 08:25:30;;;;;;;13.13;6.18;;;0.40;99.90;;;;;;5050281;28;20020;-76
2021/03/08 08:27:57;;;;;;;17.50;6.55;;;0.40;99.90;;;;;;5050810;28;20066;-76
2021/03/08 08:30:24;;;;;;;12.57;5.40;;;0.50;99.90;;;;;;5031346;28;20036;-76
2021/03/08 08:32:54;;;;;;;13.52;5.18;;;0.50;99.90;;;;;;5013348;28;20402;-77
2021/03/08 08:35:23;;;;;;;17.83;5.10;;;0.70;99.90;;;;;;5030477;28;20106;-75
2021/03/08 08:38:07;;;;;;;24.17;5.57;;;0.80;99.90;;;;;;5047900;28;20028;-76
2021/03/08 08:40:38;;;;;;;15.30;5.15;;;1.00;99.90;;;;;;5048673;28;20029;-76
2021/03/08 08:43:15;;;;;;;11.95;4.90;;;1.00;99.90;;;;;;5050785;28;20036;-76
2021/03/08 08:45:46;;;;;;;19.15;5.95;;;1.20;99.90;;;;;;5044749;28;20021;-76
2021/03/08 08:48:13;;;;;;;19.38;6.90;;;1.40;99.90;;;;;;5050678;28;20091;-77
2021/03/08 08:50:45;;;;;;;24.98;8.50;;;1.50;99.90;;;;;;5050625;28;20037;-76
2021/03/08 08:53:11;;;;;;;14.10;6.75;;;1.60;99.90;;;;;;5049289;28;20021;-77
2021/03/08 08:55:37;;;;;;;15.15;6.40;;;1.80;99.90;;;;;;5049996;28;20509;-76
2021/03/08 08:58:28;;;;;;;17.52;6.47;;;1.90;99.90;;;;;;5033721;28;20059;-76
2021/03/08 09:01:13;;;;;;;15.55;6.10;;;2.10;99.90;;;;;;5052351;28;20024;-76
2021/03/08 09:03:52;;;;;;;15.35;6.35;;;2.20;99.90;;;;;;5036098;28;20029;-77
2021/03/08 09:06:43;;;;;;;12.80;5.90;;;2.30;99.90;;;;;;5053930;28;20013;-76
2021/03/08 09:09:28;;;;;;;14.20;5.20;;;2.50;99.90;;;;;;5035034;28;20094;-76
2021/03/08 09:11:56;;;;;;;17.10;6.60;;;2.60;99.90;;;;;;5062265;28;20025;-77
2021/03/08 09:14:47;;;;;;;16.15;6.03;;;2.80;99.90;;;;;;5035008;28;20029;-76
2021/03/08 09:17:16;;;;;;;11.57;4.60;;;3.00;99.90;;;;;;5053971;28;20013;-76
2021/03/08 09:19:44;;;;;;;9.77;4.63;;;3.20;99.90;;;;;;5035790;28;20443;-76
2021/03/08 09:22:27;;;;;;;10.80;3.40;;;3.40;99.90;;;;;;5053622;28;20461;-76
2021/03/08 09:24:54;;;;;;;12.35;4.18;;;3.60;99.90;;;;;;5053110;28;20457;-76
2021/03/08 09:27:29;;;;;;;11.70;3.63;;;3.90;99.90;;;;;;5050839;28;20033;-76
2021/03/08 09:30:05;;;;;;;11.00;3.28;;;4.00;99.90;;;;;;5052575;28;20481;-75
2021/03/08 09:32:31;;;;;;;13.32;4.63;;;4.20;99.90;;;;;;5053263;28;20041;-76
2021/03/08 09:35:02;;;;;;;14.10;3.33;;;4.30;99.90;;;;;;5046925;28;20111;-76
2021/03/08 09:37:30;;;;;;;7.18;2.63;;;4.60;99.90;;;;;;5073215;28;20021;-76
2021/03/08 09:39:57;;;;;;;13.30;3.30;;;4.70;99.90;;;;;;5073331;28;20029;-76
2021/03/08 09:42:23;;;;;;;8.95;2.45;;;4.60;99.90;;;;;;5036754;28;20025;-76
2021/03/08 09:44:49;;;;;;;7.97;2.70;;;4.80;99.90;;;;;;5052753;28;20388;-75
2021/03/08 09:47:15;;;;;;;12.05;2.95;;;4.90;99.90;;;;;;5053064;28;20021;-75
2021/03/08 09:49:52;;;;;;;6.38;2.58;;;5.10;99.90;;;;;;5035155;28;20039;-76
2021/03/08 09:52:34;;;;;;;9.25;2.38;;;5.10;99.90;;;;;;5052483;28;20037;-76
2021/03/08 09:55:01;;;;;;;7.40;2.05;;;5.30;99.90;;;;;;5052713;28;20025;-75
2021/03/08 09:57:36;;;;;;;7.25;2.30;;;5.60;99.90;;;;;;5052305;28;20029;-76
2021/03/08 10:00:12;;;;;;;12.68;2.35;;;5.80;99.90;;;;;;5052793;28;20052;-77
2021/03/08 10:02:38;;;;;;;13.02;2.40;;;5.90;99.90;;;;;;5032125;28;20486;-76
2021/03/08 10:05:06;;;;;;;5.57;0.90;;;5.90;99.90;;;;;;5053095;28;20071;-76
2021/03/08 10:07:32;;;;;;;8.20;1.63;;;5.80;99.90;;;;;;5053551;28;20024;-76
2021/03/08 10:10:12;;;;;;;5.85;1.33;;;5.90;99.90;;;;;;5058130;28;20103;-76
2021/03/08 10:12:37;;;;;;;7.90;2.38;;;6.00;99.90;;;;;;5052095;28;20032;-77
2021/03/08 10:15:06;;;;;;;8.43;1.85;;;6.10;99.90;;;;;;5034010;28;20083;-77
2021/03/08 10:17:32;;;;;;;10.20;1.98;;;6.10;99.90;;;;;;5052651;28;20033;-76
2021/03/08 10:20:00;;;;;;;5.35;1.85;;;6.30;99.90;;;;;;5052484;28;20035;-76
2021/03/08 10:22:37;;;;;;;4.68;1.65;;;6.50;99.90;;;;;;5034591;28;20025;-76
2021/03/08 10:25:34;;;;;;;7.97;2.33;;;6.50;99.90;;;;;;5051629;28;20025;-77
2021/03/08 10:28:02;;;;;;;5.25;1.77;;;6.70;99.90;;;;;;5026903;28;20072;-77
2021/03/08 10:30:33;;;;;;;12.20;2.20;;;6.40;99.90;;;;;;5014816;28;20453;-78
2021/03/08 10:33:07;;;;;;;3.90;1.50;;;6.30;99.90;;;;;;5048870;28;20053;-77
2021/03/08 10:35:40;;;;;;;5.88;1.77;;;6.40;99.90;;;;;;5051818;28;20027;-77
2021/03/08 10:38:06;;;;;;;5.65;1.50;;;6.70;99.90;;;;;;5052334;28;20555;-77
2021/03/08 10:40:32;;;;;;;8.60;1.75;;;6.90;99.90;;;;;;5033942;28;20032;-77
2021/03/08 10:42:59;;;;;;;8.13;2.65;;;7.10;99.90;;;;;;5052067;28;20025;-77
2021/03/08 10:45:26;;;;;;;6.10;1.60;;;7.00;99.90;;;;;;5051656;28;20481;-77
2021/03/08 10:48:11;;;;;;;4.82;1.55;;;7.00;99.90;;;;;;5052195;28;20021;-77
2021/03/08 10:50:50;;;;;;;6.00;1.30;;;7.10;99.90;;;;;;5033994;28;20083;-77
2021/03/08 10:53:17;;;;;;;8.05;1.80;;;7.40;99.90;;;;;;5033657;28;20036;-77
2021/03/08 10:55:43;;;;;;;9.10;2.10;;;7.30;99.90;;;;;;5051100;28;20028;-77
2021/03/08 10:58:09;;;;;;;4.10;1.48;;;7.30;99.90;;;;;;5052042;28;20543;-76
2021/03/08 11:00:35;;;;;;;4.93;1.40;;;7.50;99.90;;;;;;5049586;28;20025;-77
2021/03/08 11:03:02;;;;;;;7.03;1.88;;;7.70;99.90;;;;;;5040222;28;20031;-77
2021/03/08 11:05:28;;;;;;;3.90;1.40;;;7.90;99.90;;;;;;5051203;28;20017;-77
2021/03/08 11:07:59;;;;;;;9.23;1.63;;;7.90;99.90;;;;;;5051708;28;20021;-77
2021/03/08 11:10:38;;;;;;;6.57;1.88;;;7.80;95.50;;;;;;5051377;28;20028;-78
2021/03/08 11:13:07;;;;;;;7.60;1.20;;;7.70;96.60;;;;;;5051451;28;20032;-76
2021/03/08 11:15:34;;;;;;;6.95;1.40;;;7.80;97.60;;;;;;5050941;28;20053;-77
2021/03/08 11:17:59;;;;;;;8.07;1.67;;;7.70;99.90;;;;;;5051608;28;20032;-76
2021/03/08 11:20:29;;;;;;;3.55;1.33;;;8.00;97.70;;;;;;5050671;28;20397;-78
2021/03/08 11:22:56;;;;;;;5.03;1.33;;;8.00;94.80;;;;;;5050323;28;20074;-76
2021/03/08 11:25:32;;;;;;;9.88;1.90;;;8.20;96.50;;;;;;5050693;28;20021;-75
2021/03/08 11:27:59;;;;;;;5.70;1.42;;;8.30;95.50;;;;;;5031485;28;20382;-75
2021/03/08 11:30:26;;;;;;;6.38;1.60;;;8.50;76.60;;;;;;5031387;28;20021;-75
2021/03/08 11:32:55;;;;;;;4.20;1.77;;;8.20;81.10;;;;;;5046570;28;20074;-75
2021/03/08 11:35:29;;;;;;;4.47;2.00;;;8.20;81.30;;;;;;5050849;28;20032;-75
2021/03/08 11:38:06;;;;;;;6.20;1.58;;;7.90;80.70;;;;;;5051163;28;20040;-76
2021/03/08 11:40:33;;;;;;;4.78;1.55;;;7.70;81.40;;;;;;5050725;28;20501;-76
2021/03/08 11:42:59;;;;;;;3.47;1.80;;;7.60;91.30;;;;;;5051068;28;20432;-75
2021/03/08 11:45:26;;;;;;;2.65;0.68;;;7.90;86.90;;;;;;5050727;28;20505;-75
2021/03/08 11:47:55;;;;;;;2.95;1.20;;;8.00;60.80;;;;;;5033387;28;20056;-81
2021/03/08 11:50:27;;;;;;;2.35;1.00;;;8.10;64.40;;;;;;5033282;28;20043;-76
2021/03/08 11:52:53;;;;;;;3.20;1.00;;;8.50;72.00;;;;;;5032880;28;20575;-75
2021/03/08 11:55:20;;;;;;;3.50;0.98;;;8.80;67.10;;;;;;5050481;28;20029;-75
2021/03/08 11:57:46;;;;;;;6.10;1.40;;;8.70;58.30;;;;;;5050998;28;20025;-78
2021/03/08 12:00:14;;;;;;;9.20;1.15;;;9.10;65.70;;;;;;5050026;28;20103;-75
2021/03/08 12:02:40;;;;;;;4.20;1.80;;;9.60;55.90;;;;;;5051074;28;20428;-76
2021/03/08 12:05:07;;;;;;;3.30;1.00;;;9.70;55.50;;;;;;5050623;28;20036;-76
2021/03/08 12:07:34;;;;;;;4.90;0.93;;;9.60;50.60;;;;;;5033340;28;20021;-77
2021/03/08 12:10:00;;;;;;;4.60;1.27;;;9.50;50.80;;;;;;5050649;28;20393;-75
2021/03/08 12:12:25;;;;;;;2.45;0.80;;;9.60;56.20;;;;;;5033081;28;20033;-76
2021/03/08 12:14:51;;;;;;;4.95;1.13;;;9.50;54.70;;;;;;5050671;28;20029;-76
2021/03/08 12:17:16;;;;;;;2.88;1.23;;;9.80;57.50;;;;;;5033351;28;20091;-76
2021/03/08 12:19:42;;;;;;;9.32;1.55;;;10.20;55.10;;;;;;5050647;28;20033;-77
2021/03/08 12:22:07;;;;;;;7.47;1.00;;;10.50;54.80;;;;;;5050953;28;20032;-77
2021/03/08 12:24:33;;;;;;;3.85;1.33;;;10.90;57.60;;;;;;5050399;28;20372;-76
2021/03/08 12:26:58;;;;;;;3.13;0.95;;;11.20;52.40;;;;;;5050561;28;20032;-75
2021/03/08 12:29:24;;;;;;;1.90;0.98;;;11.10;51.10;;;;;;5033012;28;20025;-76
2021/03/08 12:31:50;;;;;;;3.45;1.05;;;11.00;53.60;;;;;;5034498;28;20068;-76
2021/03/08 12:34:15;;;;;;;2.05;1.15;;;11.60;58.30;;;;;;5054218;28;20108;-76
2021/03/08 12:36:41;;;;;;;6.95;1.08;;;12.00;55.50;;;;;;5036436;28;20116;-77
2021/03/08 12:39:06;;;;;;;7.60;1.83;;;12.50;53.10;;;;;;5054531;28;20021;-77
2021/03/08 12:41:32;;;;;;;4.20;1.33;;;12.50;51.60;;;;;;5054347;28;20024;-77
2021/03/08 12:43:58;;;;;;;4.03;1.08;;;12.50;48.80;;;;;;5053951;28;20374;-77
2021/03/08 12:46:24;;;;;;;5.20;1.23;;;11.60;49.80;;;;;;5054259;28;20039;-77
2021/03/08 12:48:51;;;;;;;3.35;1.10;;;11.60;51.00;;;;;;5036035;28;20037;-76
2021/03/08 12:51:18;;;;;;;2.83;1.17;;;12.40;52.70;;;;;;5036541;28;20025;-76
2021/03/08 12:53:43;;;;;;;4.93;1.40;;;12.40;49.90;;;;;;5053833;28;20055;-77
2021/03/08 12:56:09;;;;;;;5.82;1.42;;;13.00;52.40;;;;;;5036209;28;20446;-76